Hauptseite
METAR-TAF:

METAR-TAF

Flughäfen :

Hongkong, China

Hong Kong International Airport

Breite: 22-19N, Länge: 113-55E, Höhe: 9 m

Beobachtung

Neuester Wetterbericht von vor 28 Minuten, um 01:00 UTC
Wind 15 kt aus Ost
Temperatur 23°C
Luftfeuchtigkeit 78%
Luftdruck 1019 hPa
Sichtweite: 9000 m
Leicht bewölkt in der Höhe von 1800 ft
Aufgelockert bewölkt in der Höhe von 3500 ft

METAR: VHHH 290100Z 10015KT 9000 FEW018 SCT035 23/19 Q1019 NOSIG

Zeit: 09:28 (01:28 UTC)

Prognose

Neuester Wetterbericht von vor 2 Stunden und 28 Minuten, um 23:00 UTC
Gültige Prognose vom 29 um 00 UTC bis 30 um 06 UTC
Wind 10 kt aus Ost
Sichtweite: 7000 m
Leicht bewölkt in der Höhe von 2000 ft

TAF: VHHH 282300Z 2900/3006 10010KT 7000 FEW020 TX27/2906Z TX26/3006Z TN21/2923Z

Wetterbeobachtungen und Prognosen von mehr als 4000 Flughäfen (METAR und TAF Bericht).

Die verfügbaren Stationen werden durch gelbe und rote Markierungen auf der Karte dargestellt.

Führen Sie die Maus auf sie, um den Namen der Station zu sehen.

Darauf klicken, um die Beobachtung von Wetterbeobachtungen und Prognosen zu sehen.

Um die Karte zu ändern : klicken Sie auf den grünen Tasten mit einem schwarzen Kreuz Zum Vergrößern, auf den grünen Button mit einem Gedankenstrich zu verkleinern, oder auf die grünen Pfeile für benachbarte Karten.


METAR-TAF: